NEODyS-2

Near Earth Objects - Dynamic Site
NEODyS ∴ Observatories ∴ Site 691 ∴ Obs & residuals
Contact »
691  ▹ 
OBSERVATIONS AND RESIDUALS

691-Steward Observatory, Kitt Peak-Spacewatch

Detections | Residuals | Detections & Residuals

[1-200] [201-400] [401-600] [601-800] [801-1000] [1001-1200] [1201-1400] [1401-1600] [1601-1800] [1801-2000] [2001-2200] [2201-2400] [2401-2600] [2601-2800] [2801-3000] [3001-3200] [3201-3400] [3401-3600] [3601-3800] [3801-4000] [4001-4200] [4201-4400] [4401-4600] [4601-4800] [4801-5000] [5001-5200] [5201-5400] [5401-5600] [5601-5800] [5801-6000] [6001-6200] [6201-6400] [6401-6600] [6601-6800] [6801-7000] [7001-7200] [7201-7400] [7401-7600] [7601-7800] [7801-8000] [8001-8200] [8201-8400] [8401-8600] [8601-8800] [8801-9000] [9001-9200] [9201-9400] [9401-9600] [9601-9800] [9801-10000] [10001-10200] [10201-10400] [10401-10600] [10601-10800] [10801-11000] [11001-11200] [11201-11400] [11401-11600] [11601-11800] [11801-12000] [12001-12200] [12201-12400] [12401-12600] [12601-12800] [12801-13000] [13001-13200] [13201-13400] [13401-13600] [13601-13800] [13801-14000] [14001-14200] [14201-14400] [14401-14600] [14601-14800] [14801-15000] [15001-15200] [15201-15400] [15401-15600] [15601-15800] [15801-16000] [16001-16200] [16201-16400] [16401-16600] [16601-16800] [16801-17000] [17001-17200] [17201-17400] [17401-17600] [17601-17800] [17801-18000] [18001-18200] [18201-18400] [18401-18600] [18601-18800] [18801-19000] [19001-19200] [19201-19400] [19401-19600] [19601-19800] [19801-20000] [20001-20200] [20201-20400] [20401-20600] [20601-20800] [20801-21000] [21001-21200] [21201-21400] [21401-21600] [21601-21800] [21801-22000] [22001-22200] [22201-22400] [22401-22600] [22601-22800] [22801-23000] [23001-23200] [23201-23400] [23401-23600] [23601-23800] [23801-24000] [24001-24200] [24201-24400] [24401-24600] [24601-24800] [24801-25000] [25001-25200] [25201-25400] [25401-25600] [25601-25800] [25801-26000] [26001-26200] [26201-26400] [26401-26600] [26601-26800] [26801-27000] [27001-27200] [27201-27400] [27401-27600] [27601-27800] [27801-28000] [28001-28200] [28201-28400] [28401-28600] [28601-28800] [28801-29000] [29001-29200] [29201-29400] [29401-29600] [29601-29800] [29801-30000] [30001-30200] [30201-30400] [30401-30600] [30601-30800] [30801-31000] [31001-31200] [31201-31400] [31401-31600] [31601-31800] [31801-32000] [32001-32200] [32201-32400] [32401-32600] [32601-32800] [32801-33000] [33001-33200] [33201-33400] [33401-33600] [33601-33800] [33801-34000] [34001-34200] [34201-34400] [34401-34600] [34601-34800] [34801-35000] [35001-35200] [35201-35400] [35401-35600] [35601-35800] [35801-36000] [36001-36200] [36201-36400] [36401-36600] [36601-36800] [36801-37000] [37001-37200] [37201-37400] [37401-37600] [37601-37800] [37801-38000] [38001-38200] [38201-38400] [38401-38600] [38601-38800] [38801-39000] [39001-39200] [39201-39400] [39401-39600] [39601-39800] [39801-40000] [40001-40200] [40201-40400] [40401-40600] [40601-40800] [40801-41000] [41001-41200] [41201-41400] [41401-41600] [41601-41800] [41801-42000] [42001-42200] [42201-42400] [42401-42600] [42601-42800] [42801-43000] [43001-43200] [43201-43400] [43401-43600] [43601-43800] [43801-44000] [44001-44200] [44201-44400] [44401-44600] [44601-44800] [44801-45000] [45001-45200] [45201-45400] [45401-45600] [45601-45800] [45801-46000] [46001-46200] [46201-46400] [46401-46600] [46601-46800] [46801-47000] [47001-47200] [47201-47400] [47401-47600] [47601-47800] [47801-48000] [48001-48200] [48201-48400] [48401-48600] [48601-48800] [48801-49000] [49001-49200] [49201-49400] [49401-49600] [49601-49800] [49801-50000] [50001-50200] [50201-50388]

Designation T Tech N Date Right Ascension Declination Apparent Magnitude Star Catalog Site code χ Used A Used M
yr-mo-day precision hr:min:sec precision rms F bias residual deg min sec precision rms F bias residual mag/col rms residual
2019WT4 O C K 2019-12-15.33798 1.000E-05 04:27:24.030 1.500E-01 0.500 F -0.227 -0.053 -08° 30' 14.00" 1.000E-01 0.500 F 0.211 -0.003 o 691 0.11 Yes No
2019WC5 O C K 2019-12-15.34535 1.000E-05 06:04:49.420 1.500E-01 0.500 F -0.048 -0.108 -02° 38' 49.40" 1.000E-01 0.500 F -0.103 0.040 20.7 R 0.70 0.47 o 691 0.23 Yes Yes
2019WC5 O C K 2019-12-15.36015 1.000E-05 06:04:49.810 1.500E-01 0.500 F -0.048 -0.167 -02° 38' 59.10" 1.000E-01 0.500 F -0.103 0.124 20.6 R 0.70 0.37 o 691 0.42 Yes Yes
2019WT4 O C K 2019-12-15.36759 1.000E-05 04:27:25.570 1.500E-01 0.500 F -0.227 0.140 -08° 33' 36.60" 1.000E-01 0.500 F 0.211 -0.055 19.2 R 0.70 -0.57 o 691 0.31 Yes Yes
2019XA3 O C K 2019-12-16.05852 1.000E-05 22:25:16.410 1.500E-01 0.500 F -0.049 -0.412 -00° 48' 45.10" 1.000E-01 0.500 F 0.507 0.319 20.0 R 0.70 -0.20 o 691 1.05 Yes Yes
2019UO O C H 2019-12-16.06326 1.000E-05 23:21:57.330 1.500E-01 0.500 F -0.221 -0.522 +12° 50' 05.80" 1.000E-01 0.500 F 0.313 -0.015 19.3 R 0.70 1.10 o 691 1.05 Yes Yes
2019UT9 O C K 2019-12-16.06591 1.000E-05 22:36:36.360 1.500E-01 0.500 F -0.145 -0.673 -24° 59' 07.50" 1.000E-01 0.500 F 0.316 -0.530 o 691 1.73 Yes No
2019XA3 O C K 2019-12-16.06923 1.000E-05 22:25:18.450 1.500E-01 0.500 F -0.049 0.246 -00° 48' 03.40" 1.000E-01 0.500 F 0.507 -0.104 20.0 R 0.70 -0.20 o 691 0.54 Yes Yes
2019UO O C H 2019-12-16.07396 1.000E-05 23:21:56.860 1.500E-01 0.500 F -0.221 0.072 +12° 49' 48.70" 1.000E-01 0.500 F 0.313 0.263 19.5 R 0.70 1.30 o 691 0.55 Yes Yes
2019UT9 O C K 2019-12-16.07655 1.000E-05 22:36:36.790 1.500E-01 0.500 F -0.145 0.030 -24° 58' 29.50" 1.000E-01 0.500 F 0.316 0.268 19.8 R 0.70 0.16 o 691 0.55 Yes Yes
2019XA3 O C K 2019-12-16.07986 1.000E-05 22:25:20.380 1.500E-01 0.500 F -0.049 -0.540 -00° 47' 21.50" 1.000E-01 0.500 F 0.507 -0.012 20.3 R 0.70 0.10 o 691 1.10 Yes Yes
2019UO O C H 2019-12-16.08459 1.000E-05 23:21:56.340 1.500E-01 0.500 F -0.221 -0.148 +12° 49' 30.70" 1.000E-01 0.500 F 0.313 -0.407 19.5 R 0.70 1.30 o 691 0.87 Yes Yes
2019UT9 O C K 2019-12-16.08718 1.000E-05 22:36:37.140 1.500E-01 0.500 F -0.145 -0.370 -24° 57' 52.70" 1.000E-01 0.500 F 0.316 -0.131 19.8 R 0.70 0.16 o 691 0.79 Yes Yes
2019VF6 O C K 2019-12-16.28122 1.000E-05 04:41:41.610 1.500E-01 0.500 F -0.316 -0.168 -08° 07' 59.10" 1.000E-01 0.500 F 0.059 0.280 19.1 R 0.70 -0.07 o 691 0.66 Yes Yes
2019VF6 O C K 2019-12-16.28958 1.000E-05 04:41:39.090 1.500E-01 0.500 F -0.316 0.300 -08° 07' 55.40" 1.000E-01 0.500 F 0.059 0.612 19.0 R 0.70 -0.17 o 691 1.37 Yes Yes
2019VF6 O C K 2019-12-16.29796 1.000E-05 04:41:36.510 1.500E-01 0.500 F -0.316 -0.026 -08° 07' 52.80" 1.000E-01 0.500 F 0.059 -0.184 19.2 R 0.70 0.03 o 691 0.38 Yes Yes
2019XB O C K 2019-12-16.30592 1.000E-05 01:22:53.250 1.500E-01 0.500 F -0.098 0.603 +26° 55' 43.90" 1.000E-01 0.500 F 0.245 0.277 o 691 1.35 Yes No
2019OP2 O C K 2019-12-16.31322 1.000E-05 02:05:48.280 1.500E-01 0.500 F -0.308 0.371 +20° 19' 03.80" 1.000E-01 0.500 F 0.277 0.402 o 691 1.10 Yes No
2019XB O C K 2019-12-16.31942 1.000E-05 01:22:46.190 1.500E-01 0.500 F -0.139 0.756 +26° 52' 54.30" 1.000E-01 0.500 F 0.331 -0.192 18.9 R 0.70 0.00 o 691 1.58 Yes Yes
2019UB11 O C H 2019-12-16.32524 1.000E-05 02:02:24.930 1.500E-01 0.500 F -0.343 0.442 +17° 56' 48.20" 1.000E-01 0.500 F 0.221 0.064 17.8 R 0.70 -0.14 o 691 0.91 Yes Yes
2019OP2 O C K 2019-12-16.32671 1.000E-05 02:05:52.770 1.500E-01 0.500 F -0.308 -0.115 +20° 18' 50.50" 1.000E-01 0.500 F 0.277 0.030 19.4 R 0.70 0.10 o 691 0.24 Yes Yes
2019UB11 O C H 2019-12-16.33873 1.000E-05 02:02:32.170 1.500E-01 0.500 F -0.343 0.281 +17° 56' 47.80" 1.000E-01 0.500 F 0.221 0.047 17.5 R 0.70 -0.44 o 691 0.58 Yes Yes
2019OP2 O C K 2019-12-16.34021 1.000E-05 02:05:57.350 1.500E-01 0.500 F -0.308 0.455 +20° 18' 37.60" 1.000E-01 0.500 F 0.277 0.103 19.4 R 0.70 0.10 o 691 0.94 Yes Yes
2019WV O C K 2019-12-16.35456 1.000E-05 04:41:44.880 1.500E-01 0.500 F -0.259 0.158 +10° 16' 41.70" 1.000E-01 0.500 F 0.206 0.766 21.6 R 0.70 0.84 o 691 1.58 Yes Yes
2001RB18 O C 2019-12-16.35456 1.000E-05 04:42:43.120 1.500E-01 0.500 F -0.267 -0.070 +09° 30' 43.80" 1.000E-01 0.500 F 0.231 -0.208 18.3 V 0.70 0.26 o 691 0.44 Yes Yes
2019WV O C K 2019-12-16.37476 1.000E-05 04:41:43.190 1.500E-01 0.500 F -0.259 0.540 +10° 16' 53.90" 1.000E-01 0.500 F 0.206 -0.428 o 691 1.39 Yes No
2001RB18 O C 2019-12-16.37476 1.000E-05 04:42:42.970 1.500E-01 0.500 F -0.267 0.208 +09° 30' 52.00" 1.000E-01 0.500 F 0.231 0.274 18.5 V 0.70 0.46 o 691 0.69 Yes Yes
2001RB18 O C 2019-12-16.39271 1.000E-05 04:42:42.800 1.500E-01 0.500 F -0.267 -0.248 +09° 30' 58.60" 1.000E-01 0.500 F 0.231 0.045 18.3 V 0.70 0.26 o 691 0.50 Yes Yes
2019WS4 O C K 2019-12-17.12111 1.000E-05 01:31:43.130 1.500E-01 0.500 F -0.196 0.025 +07° 29' 05.70" 1.000E-01 0.500 F 0.346 0.501 21.1 R 0.70 -0.04 o 691 1.07 Yes Yes
2019WS4 O C K 2019-12-17.12924 1.000E-05 01:31:42.650 1.500E-01 0.500 F -0.196 0.305 +07° 28' 12.90" 1.000E-01 0.500 F 0.346 -0.478 21.5 R 0.70 0.36 o 691 1.20 Yes Yes
2019WS4 O C K 2019-12-17.13735 1.000E-05 01:31:42.150 1.500E-01 0.500 F -0.196 0.275 +07° 27' 21.40" 1.000E-01 0.500 F 0.346 -0.250 21.2 R 0.70 0.06 o 691 0.78 Yes Yes
2019WZ O C 2019-12-17.14821 1.000E-05 04:34:06.610 1.500E-01 0.500 F -0.143 -0.106 +04° 07' 33.00" 1.000E-01 0.500 F 0.148 -0.639 20.2 V 0.70 0.11 o 691 1.31 Yes Yes
2019WZ O C 2019-12-17.15639 1.000E-05 04:34:06.580 1.500E-01 0.500 F -0.143 -0.184 +04° 06' 52.10" 1.000E-01 0.500 F 0.148 -1.077 19.8 V 0.70 -0.29 o 691 2.21 Yes Yes
2019WZ O C 2019-12-17.16322 1.000E-05 04:34:06.490 1.500E-01 0.500 F -0.143 -1.185 +04° 06' 17.60" 1.000E-01 0.500 F 0.148 -1.793 19.4 V 0.70 -0.69 o 691 4.25 No Yes
2019UX13 O C K 2019-12-17.16645 1.000E-05 05:00:06.210 1.500E-01 0.500 F -0.272 -0.062 -13° 00' 09.20" 1.000E-01 0.500 F 0.143 -0.045 o 691 0.15 Yes No
2019UX13 O C K 2019-12-17.18234 1.000E-05 05:00:04.980 1.500E-01 0.500 F -0.272 0.301 -12° 59' 58.10" 1.000E-01 0.500 F 0.143 0.112 o 691 0.65 Yes No
2019UX13 O C K 2019-12-17.19825 1.000E-05 05:00:03.700 1.500E-01 0.500 F -0.272 0.032 -12° 59' 47.80" 1.000E-01 0.500 F 0.143 -0.580 o 691 1.18 Yes No
2001RB18 O C 2019-12-17.28828 1.000E-05 04:42:42.500 1.500E-01 0.500 F -0.267 -0.250 +09° 36' 54.80" 1.000E-01 0.500 F 0.231 0.058 18.4 V 0.70 0.30 o 691 0.51 Yes Yes
2019WV O C K 2019-12-17.28828 1.000E-05 04:40:53.500 1.500E-01 0.500 F -0.259 0.120 +10° 27' 37.40" 1.000E-01 0.500 F 0.206 -0.079 21.5 R 0.70 0.64 o 691 0.29 Yes Yes
2019WV O C K 2019-12-17.29555 1.000E-05 04:40:52.910 1.500E-01 0.500 F -0.259 0.370 +10° 27' 42.50" 1.000E-01 0.500 F 0.206 0.065 22.0 R 0.70 1.14 o 691 0.76 Yes Yes
2001RB18 O C 2019-12-17.29919 1.000E-05 04:42:42.420 1.500E-01 0.500 F -0.267 -0.115 +09° 36' 59.30" 1.000E-01 0.500 F 0.231 0.224 18.4 V 0.70 0.30 o 691 0.50 Yes Yes
2019WV O C K 2019-12-17.30282 1.000E-05 04:40:52.270 1.500E-01 0.500 F -0.259 -0.149 +10° 27' 47.20" 1.000E-01 0.500 F 0.206 -0.164 21.8 R 0.70 0.94 o 691 0.45 Yes Yes
2001RB18 O C 2019-12-17.30645 1.000E-05 04:42:42.350 1.500E-01 0.500 F -0.267 -0.283 +09° 37' 02.10" 1.000E-01 0.500 F 0.231 0.148 18.4 V 0.70 0.30 o 691 0.64 Yes Yes
2002EZ16 O C 2019-12-17.35824 1.000E-05 08:20:12.330 1.500E-01 0.500 F -0.002 -0.503 -05° 33' 28.40" 1.000E-01 0.500 F 0.019 -0.302 19.6 V 0.70 0.24 o 691 1.17 Yes Yes
2002EZ16 O C 2019-12-17.37483 1.000E-05 08:20:09.410 1.500E-01 0.500 F -0.002 -0.154 -05° 34' 02.70" 1.000E-01 0.500 F 0.019 -0.396 19.8 V 0.70 0.44 o 691 0.85 Yes Yes
2002EZ16 O C 2019-12-17.38866 1.000E-05 08:20:06.950 1.500E-01 0.500 F -0.002 -0.198 -05° 34' 31.00" 1.000E-01 0.500 F 0.019 -0.191 19.9 V 0.70 0.54 o 691 0.55 Yes Yes
2019WR O C K 2019-12-17.40408 1.000E-05 08:28:30.660 1.500E-01 0.500 F 0.011 -0.797 -07° 31' 39.80" 1.000E-01 0.500 F 0.016 -0.744 o 691 2.25 Yes No
2019WR O C K 2019-12-17.41489 1.000E-05 08:28:34.090 1.500E-01 0.500 F 0.011 0.483 -07° 32' 54.30" 1.000E-01 0.500 F 0.016 0.808 21.6 R 0.70 1.18 o 691 1.95 Yes Yes
2016CQ195 O C K 2019-12-18.06237 1.000E-05 21:46:28.690 1.500E-01 0.500 F -0.123 0.674 +17° 42' 27.30" 1.000E-01 0.500 F 0.378 0.603 o 691 1.92 Yes No
2016CQ195 O C K 2019-12-18.06547 1.000E-05 21:46:29.440 1.500E-01 0.500 F -0.123 0.154 +17° 42' 33.40" 1.000E-01 0.500 F 0.378 0.288 o 691 0.70 Yes No
2019UJ15 O C K 2019-12-18.12009 1.000E-05 00:12:18.900 1.500E-01 0.612 F -0.146 -0.042 +15° 17' 43.50" 1.000E-01 0.612 F 0.471 0.071 19.0 R 0.28 o 691 0.14 Yes Yes
2019UJ15 O C 2019-12-18.12009 1.000E-05 00:12:18.890 1.500E-01 0.612 F -0.146 -0.187 +15° 17' 43.70" 1.000E-01 0.612 F 0.471 0.271 o 691 0.54 Yes No
2019UJ15 O C K 2019-12-18.12474 1.000E-05 00:12:19.890 1.500E-01 0.612 F -0.146 0.066 +15° 17' 16.60" 1.000E-01 0.612 F 0.471 -0.065 19.0 R 0.70 0.28 o 691 0.15 Yes Yes
2019UJ15 O C 2019-12-18.12629 1.000E-05 00:12:20.210 1.500E-01 0.612 F -0.146 -0.044 +15° 17' 07.20" 1.000E-01 0.612 F 0.471 -0.542 o 691 0.90 Yes No
2019UJ15 O C K 2019-12-18.12939 1.000E-05 00:12:20.870 1.500E-01 0.612 F -0.146 0.022 +15° 16' 49.60" 1.000E-01 0.612 F 0.471 -0.292 19.2 R 0.70 0.48 o 691 0.48 Yes Yes
2019UJ15 O C 2019-12-18.13249 1.000E-05 00:12:21.500 1.500E-01 0.612 F -0.146 -0.350 +15° 16' 31.50" 1.000E-01 0.612 F 0.471 -0.539 o 691 1.06 Yes No
2019XB O C K 2019-12-18.22089 1.000E-05 01:09:20.170 1.500E-01 0.500 F -0.152 -0.276 +20° 59' 57.90" 1.000E-01 0.500 F 0.369 0.298 19.1 R 0.70 -0.17 o 691 0.83 Yes Yes
2019XB O C K 2019-12-18.22437 1.000E-05 01:09:18.760 1.500E-01 0.500 F -0.152 -0.093 +20° 59' 21.50" 1.000E-01 0.500 F 0.369 -0.168 18.9 R 0.70 -0.37 o 691 0.39 Yes Yes
2019XB O C K 2019-12-18.22784 1.000E-05 01:09:17.360 1.500E-01 0.500 F -0.152 0.125 +20° 58' 45.80" 1.000E-01 0.500 F 0.369 -0.034 19.2 R 0.70 -0.07 o 691 0.26 Yes Yes
2019VF6 O C K 2019-12-18.33258 1.000E-05 04:31:12.120 1.500E-01 0.500 F -0.328 0.108 -07° 50' 48.00" 1.000E-01 0.500 F 0.135 -0.088 18.8 R 0.70 -0.27 o 691 0.28 Yes Yes
2019VF6 O C K 2019-12-18.33723 1.000E-05 04:31:10.570 1.500E-01 0.500 F -0.328 0.255 -07° 50' 45.00" 1.000E-01 0.500 F 0.135 0.013 19.0 R 0.70 -0.07 o 691 0.52 Yes Yes
2019VF6 O C K 2019-12-18.34188 1.000E-05 04:31:09.000 1.500E-01 0.500 F -0.328 0.096 -07° 50' 42.20" 1.000E-01 0.500 F 0.135 -0.092 18.9 R 0.70 -0.17 o 691 0.27 Yes Yes
2016AF193 O C K 2019-12-19.08454 1.000E-05 00:43:04.300 1.500E-01 0.500 F -0.246 -0.020 +01° 06' 34.90" 1.000E-01 0.500 F 0.435 -0.063 20.4 R 0.70 0.36 o 691 0.13 Yes Yes
2016AF193 O C K 2019-12-19.08849 1.000E-05 00:43:05.990 1.500E-01 0.500 F -0.246 0.095 +01° 06' 37.30" 1.000E-01 0.500 F 0.435 -0.594 21.5 R 0.70 1.46 o 691 1.22 Yes Yes
2016AF193 O C K 2019-12-19.09248 1.000E-05 00:43:07.680 1.500E-01 0.500 F -0.246 -0.039 +01° 06' 40.60" 1.000E-01 0.500 F 0.435 -0.255 20.5 R 0.70 0.46 o 691 0.52 Yes Yes
2019XB O C K 2019-12-19.09650 1.000E-05 01:04:27.240 1.500E-01 0.500 F -0.260 -0.318 +18° 38' 11.50" 1.000E-01 0.500 F 0.380 0.039 19.6 R 0.70 0.17 o 691 0.65 Yes Yes
2019XB O C K 2019-12-19.09959 1.000E-05 01:04:26.090 1.500E-01 0.500 F -0.260 -0.309 +18° 37' 42.80" 1.000E-01 0.500 F 0.380 0.013 19.0 R 0.70 -0.43 o 691 0.63 Yes Yes
2019XB O C K 2019-12-19.10268 1.000E-05 01:04:24.950 1.500E-01 0.500 F -0.260 -0.162 +18° 37' 13.80" 1.000E-01 0.500 F 0.380 -0.306 19.6 R 0.70 0.17 o 691 0.71 Yes Yes
2019WM6 O C K 2019-12-19.12234 1.000E-05 01:32:11.790 1.500E-01 0.500 F -0.229 0.110 +25° 35' 51.80" 1.000E-01 0.500 F 0.309 0.359 21.5 R 0.70 -0.12 o 691 0.79 Yes Yes
2019WM6 O C K 2019-12-19.13380 1.000E-05 01:32:15.280 1.500E-01 0.500 F -0.229 -0.179 +25° 35' 53.20" 1.000E-01 0.500 F 0.309 0.163 21.4 R 0.70 -0.22 o 691 0.51 Yes Yes
2019WS4 O C K 2019-12-19.18642 1.000E-05 01:30:50.980 1.500E-01 0.500 F -0.253 -0.261 +03° 46' 28.50" 1.000E-01 0.500 F 0.311 0.397 o 691 1.01 Yes No
2019WS4 O C K 2019-12-19.19089 1.000E-05 01:30:50.770 1.500E-01 0.500 F -0.253 -0.010 +03° 46' 00.00" 1.000E-01 0.500 F 0.311 1.227 o 691 2.59 Yes No
2019OL1 O C K 2019-12-19.20095 1.000E-05 02:37:49.210 1.500E-01 0.500 F -0.134 -0.092 -05° 33' 29.70" 1.000E-01 0.500 F 0.327 0.128 21.8 R 0.70 0.55 o 691 0.32 Yes Yes
2019OL1 O C K 2019-12-19.20921 1.000E-05 02:37:50.410 1.500E-01 0.500 F -0.134 0.209 -05° 33' 26.00" 1.000E-01 0.500 F 0.327 -0.126 21.4 R 0.70 0.15 o 691 0.50 Yes Yes
2019OL1 O C K 2019-12-19.21747 1.000E-05 02:37:51.610 1.500E-01 0.500 F -0.134 0.501 -05° 33' 22.10" 1.000E-01 0.500 F 0.327 -0.186 20.9 R 0.70 -0.35 o 691 1.11 Yes Yes
2019RN4 O C K 2019-12-19.22688 1.000E-05 02:56:40.470 1.500E-01 0.612 F -0.287 0.104 +19° 23' 45.60" 1.000E-01 0.612 F 0.288 0.315 20.5 R 0.70 -0.01 o 691 0.54 Yes Yes
2019WC6 O C 2019-12-19.22688 1.000E-05 02:53:25.800 1.500E-01 0.500 F -0.337 -0.047 +18° 59' 21.00" 1.000E-01 0.500 F 0.231 0.443 o 691 0.91 Yes No
2019RN4 O C 2019-12-19.22688 1.000E-05 02:56:40.460 1.500E-01 0.612 F -0.287 -0.038 +19° 23' 45.50" 1.000E-01 0.612 F 0.288 0.215 o 691 0.36 Yes No
2019RN4 O C K 2019-12-19.23205 1.000E-05 02:56:40.340 1.500E-01 0.612 F -0.287 -0.320 +19° 23' 54.30" 1.000E-01 0.612 F 0.288 0.237 20.8 R 0.70 0.29 o 691 0.65 Yes Yes
2019WC6 O C 2019-12-19.23378 1.000E-05 02:53:26.040 1.500E-01 0.500 F -0.337 -0.148 +19° 00' 02.30" 1.000E-01 0.500 F 0.231 -0.023 o 691 0.31 Yes No
2019RN4 O C 2019-12-19.23378 1.000E-05 02:56:40.330 1.500E-01 0.612 F -0.287 0.012 +19° 23' 56.90" 1.000E-01 0.612 F 0.288 -0.099 o 691 0.16 Yes No
2019RN4 O C K 2019-12-19.23722 1.000E-05 02:56:40.290 1.500E-01 0.612 F -0.287 0.385 +19° 24' 02.80" 1.000E-01 0.612 F 0.288 -0.036 20.5 R 0.70 -0.01 o 691 0.63 Yes Yes
2019WC6 O C 2019-12-19.24067 1.000E-05 02:53:26.310 1.500E-01 0.500 F -0.337 0.160 +19° 00' 44.00" 1.000E-01 0.500 F 0.231 0.005 o 691 0.33 Yes No
2019RN4 O C 2019-12-19.24067 1.000E-05 02:56:40.170 1.500E-01 0.612 F -0.287 -0.374 +19° 24' 08.60" 1.000E-01 0.612 F 0.288 -0.087 o 691 0.63 Yes No
2019WZ O C K 2019-12-19.24612 1.000E-05 04:34:22.640 1.500E-01 0.500 F -0.178 -0.233 +01° 17' 31.60" 1.000E-01 0.500 F 0.216 0.028 o 691 0.47 Yes No
2019WZ O C K 2019-12-19.24935 1.000E-05 04:34:22.650 1.500E-01 0.500 F -0.178 0.005 +01° 17' 16.30" 1.000E-01 0.500 F 0.216 0.116 19.9 R 0.70 0.10 o 691 0.23 Yes Yes
2019WZ O C K 2019-12-19.25257 1.000E-05 04:34:22.640 1.500E-01 0.500 F -0.178 -0.057 +01° 17' 00.70" 1.000E-01 0.500 F 0.216 -0.145 19.2 R 0.70 -0.60 o 691 0.32 Yes Yes
2019XZ2 O C K 2019-12-19.25743 1.000E-05 05:25:22.860 1.500E-01 0.500 F -0.170 0.001 -12° 29' 03.00" 1.000E-01 0.500 F 0.057 -0.009 o 691 0.02 Yes No
2019XZ2 O C K 2019-12-19.26465 1.000E-05 05:25:23.300 1.500E-01 0.500 F -0.170 0.125 -12° 29' 24.40" 1.000E-01 0.500 F 0.057 0.133 o 691 0.37 Yes No
2019XZ2 O C K 2019-12-19.27187 1.000E-05 05:25:23.740 1.500E-01 0.500 F -0.170 0.269 -12° 29' 46.40" 1.000E-01 0.500 F 0.057 -0.350 o 691 0.90 Yes No
2019WL2 O C K 2019-12-19.28100 1.000E-05 04:33:10.290 1.500E-01 0.500 F -0.159 -0.443 +21° 24' 59.10" 1.000E-01 0.500 F 0.238 -0.300 o 691 1.14 Yes No
2019WL2 O C K 2019-12-19.29247 1.000E-05 04:33:11.890 1.500E-01 0.500 F -0.159 0.217 +21° 25' 10.30" 1.000E-01 0.500 F 0.238 -0.038 o 691 0.47 Yes No
2019WL2 O C K 2019-12-19.30395 1.000E-05 04:33:13.330 1.500E-01 0.500 F -0.159 -1.420 +21° 25' 22.20" 1.000E-01 0.500 F 0.238 0.983 o 691 3.28 No No
2019WV O C K 2019-12-19.31830 1.000E-05 04:39:13.670 1.500E-01 0.500 F -0.273 -0.826 +10° 50' 39.10" 1.000E-01 0.500 F 0.220 0.299 o 691 1.77 Yes No
2019WV O C K 2019-12-19.32899 1.000E-05 04:39:12.990 1.500E-01 0.500 F -0.273 -0.023 +10° 50' 45.50" 1.000E-01 0.500 F 0.220 -0.122 o 691 0.25 Yes No
2015BN311 O C K 2019-12-19.37724 1.000E-05 07:35:45.230 1.500E-01 0.500 F -0.007 -0.194 +20° 28' 07.10" 1.000E-01 0.500 F 0.320 -0.393 o 691 0.89 Yes No
2015BN311 O C K 2019-12-19.38654 1.000E-05 07:35:44.150 1.500E-01 0.500 F -0.007 -0.034 +20° 28' 19.80" 1.000E-01 0.500 F 0.320 -0.288 o 691 0.58 Yes No
2015BN311 O C K 2019-12-19.39583 1.000E-05 07:35:43.050 1.500E-01 0.500 F -0.007 -0.168 +20° 28' 32.60" 1.000E-01 0.500 F 0.320 -0.056 o 691 0.36 Yes No
2019MS3 O C 2019-12-19.40952 1.000E-05 08:27:30.890 1.500E-01 0.500 F -0.027 -0.259 -06° 39' 27.70" 1.000E-01 0.500 F 0.019 0.224 o 691 0.69 Yes No
2019MS3 O C 2019-12-19.41415 1.000E-05 08:27:29.820 1.500E-01 0.500 F -0.027 0.152 -06° 39' 12.90" 1.000E-01 0.500 F 0.019 -0.110 o 691 0.38 Yes No
2019MS3 O C 2019-12-19.41878 1.000E-05 08:27:28.680 1.500E-01 0.500 F -0.027 -0.482 -06° 38' 57.70" 1.000E-01 0.500 F 0.019 -0.045 o 691 0.98 Yes No
2019TM2 O C K 2019-12-19.42338 1.000E-05 08:23:36.800 1.500E-01 0.500 F 0.081 -0.841 +27° 02' 19.80" 1.000E-01 0.500 F 0.240 -0.138 21.9 R 0.70 0.74 o 691 1.73 Yes Yes
2019TM2 O C K 2019-12-19.42958 1.000E-05 08:23:36.300 1.500E-01 0.500 F 0.081 0.008 +27° 02' 25.40" 1.000E-01 0.500 F 0.240 0.081 21.8 R 0.70 0.64 o 691 0.17 Yes Yes
2019TM2 O C K 2019-12-19.43578 1.000E-05 08:23:35.720 1.500E-01 0.500 F 0.081 -0.217 +27° 02' 30.60" 1.000E-01 0.500 F 0.240 -0.062 21.8 R 0.70 0.64 o 691 0.46 Yes Yes
2019XF1 O C K 2019-12-19.44343 1.000E-05 08:06:15.490 1.500E-01 0.500 F -0.007 -0.483 +19° 58' 15.70" 1.000E-01 0.500 F 0.265 0.067 o 691 1.02 Yes No
2019XF1 O C K 2019-12-19.44573 1.000E-05 08:06:15.030 1.500E-01 0.500 F -0.007 -0.627 +19° 58' 08.50" 1.000E-01 0.500 F 0.265 0.323 o 691 1.47 Yes No
2019XF1 O C K 2019-12-19.44802 1.000E-05 08:06:14.640 1.500E-01 0.500 F -0.007 0.186 +19° 58' 01.10" 1.000E-01 0.500 F 0.265 0.348 o 691 0.82 Yes No
2019WR O C K 2019-12-19.48229 1.000E-05 08:40:18.900 1.500E-01 0.500 F 0.019 -0.014 -11° 24' 52.50" 1.000E-01 0.500 F 0.096 -0.112 o 691 0.23 Yes No
2019WR O C K 2019-12-19.48640 1.000E-05 08:40:20.070 1.500E-01 0.500 F -0.001 -0.200 -11° 25' 18.50" 1.000E-01 0.500 F 0.050 0.181 o 691 0.56 Yes No
2019WR O C K 2019-12-19.49052 1.000E-05 08:40:21.260 1.500E-01 0.500 F -0.001 -0.175 -11° 25' 44.50" 1.000E-01 0.500 F 0.050 0.473 o 691 1.05 Yes No
2014YU43 O C 2019-12-19.49642 1.000E-05 08:44:59.970 1.500E-01 0.612 F 0.165 -0.394 +07° 46' 18.40" 1.000E-01 0.612 F 0.185 -0.322 o 691 0.83 Yes No
2014YU43 O C K 2019-12-19.49642 1.000E-05 08:45:00.000 1.500E-01 0.612 F 0.165 0.052 +07° 46' 18.80" 1.000E-01 0.612 F 0.185 0.078 20.4 R 0.46 o 691 0.15 Yes Yes
2014YU43 O C K 2019-12-19.50123 1.000E-05 08:44:59.910 1.500E-01 0.612 F 0.165 0.142 +07° 46' 30.10" 1.000E-01 0.612 F 0.185 0.349 20.0 R 0.70 0.06 o 691 0.62 Yes Yes
2014YU43 O C 2019-12-19.50363 1.000E-05 08:44:59.830 1.500E-01 0.612 F 0.165 -0.336 +07° 46' 35.30" 1.000E-01 0.612 F 0.185 0.046 o 691 0.55 Yes No
2014YU43 O C K 2019-12-19.50605 1.000E-05 08:44:59.790 1.500E-01 0.612 F 0.165 -0.215 +07° 46' 40.50" 1.000E-01 0.612 F 0.185 -0.303 20.1 R 0.70 0.16 o 691 0.61 Yes Yes
2014YU43 O C 2019-12-19.50966 1.000E-05 08:44:59.750 1.500E-01 0.612 F 0.165 0.256 +07° 46' 48.60" 1.000E-01 0.612 F 0.185 -0.480 o 691 0.89 Yes No
2016AF193 O C K 2019-12-20.09445 1.000E-05 00:50:22.860 1.500E-01 0.500 F -0.147 -0.344 +01° 18' 50.10" 1.000E-01 0.500 F 0.428 0.033 20.2 R 0.70 0.12 o 691 0.70 Yes Yes
2016AF193 O C K 2019-12-20.09879 1.000E-05 00:50:24.600 1.500E-01 0.500 F -0.147 -0.483 +01° 18' 53.30" 1.000E-01 0.500 F 0.428 0.133 20.3 R 0.70 0.21 o 691 1.01 Yes Yes
2016AF193 O C K 2019-12-20.10315 1.000E-05 00:50:26.360 1.500E-01 0.500 F -0.147 -0.437 +01° 18' 56.30" 1.000E-01 0.500 F 0.428 0.020 20.2 R 0.70 0.11 o 691 0.89 Yes Yes
2019XB O C K 2019-12-20.11249 1.000E-05 00:59:24.230 1.500E-01 0.500 F -0.254 0.590 +16° 08' 28.90" 1.000E-01 0.500 F 0.444 -0.124 19.6 R 0.70 -0.02 o 691 1.23 Yes Yes
2019XB O C K 2019-12-20.11547 1.000E-05 00:59:23.220 1.500E-01 0.500 F -0.254 0.013 +16° 08' 04.30" 1.000E-01 0.500 F 0.444 0.316 19.8 R 0.70 0.18 o 691 0.65 Yes Yes
2019XB O C K 2019-12-20.11845 1.000E-05 00:59:22.230 1.500E-01 0.500 F -0.254 -0.283 +16° 07' 38.70" 1.000E-01 0.500 F 0.444 -0.239 19.9 R 0.70 0.28 o 691 0.76 Yes Yes
2019VO1 O C K 2019-12-20.12354 1.000E-05 01:41:40.760 1.500E-01 0.500 F -0.275 0.021 -28° 42' 42.50" 1.000E-01 0.500 F 0.191 -0.254 o 691 0.55 Yes No
2019VO1 O C K 2019-12-20.12673 1.000E-05 01:41:40.090 1.500E-01 0.500 F -0.275 0.195 -28° 43' 00.90" 1.000E-01 0.500 F 0.191 0.272 o 691 0.73 Yes No
2019OP2 O C K 2019-12-20.13715 1.000E-05 02:26:44.730 1.500E-01 0.500 F -0.346 -0.421 +19° 22' 38.00" 1.000E-01 0.500 F 0.272 -0.522 19.5 R 0.70 0.06 o 691 1.35 Yes Yes
2019OP2 O C K 2019-12-20.14076 1.000E-05 02:26:45.830 1.500E-01 0.500 F -0.346 -0.253 +19° 22' 35.40" 1.000E-01 0.500 F 0.272 -0.047 19.5 R 0.70 0.06 o 691 0.52 Yes Yes
2019OP2 O C K 2019-12-20.14437 1.000E-05 02:26:46.930 1.500E-01 0.500 F -0.346 -0.082 +19° 22' 32.40" 1.000E-01 0.500 F 0.272 0.033 20.1 R 0.70 0.66 o 691 0.18 Yes Yes
2019WO4 O C K 2019-12-20.14853 1.000E-05 03:06:41.200 1.500E-01 0.500 F -0.267 0.375 +11° 30' 59.90" 1.000E-01 0.500 F 0.369 0.764 21.4 R 0.70 -0.33 o 691 1.72 Yes Yes
2019WO4 O C K 2019-12-20.15997 1.000E-05 03:06:38.960 1.500E-01 0.500 F -0.267 -0.087 +11° 30' 44.60" 1.000E-01 0.500 F 0.369 -0.160 21.8 R 0.70 0.07 o 691 0.37 Yes Yes
2019WO4 O C K 2019-12-20.17142 1.000E-05 03:06:36.770 1.500E-01 0.500 F -0.267 0.249 +11° 30' 29.90" 1.000E-01 0.500 F 0.369 -0.436 22.2 R 0.70 0.47 o 691 1.01 Yes Yes
2019WH1 O C K 2019-12-20.18767 1.000E-05 03:24:24.190 1.500E-01 0.500 F -0.278 -0.100 -12° 52' 52.00" 1.000E-01 0.500 F 0.204 0.121 o 691 0.32 Yes No
2019WH1 O C K 2019-12-20.19489 1.000E-05 03:24:25.250 1.500E-01 0.500 F -0.278 0.045 -12° 52' 23.00" 1.000E-01 0.500 F 0.204 0.121 o 691 0.26 Yes No
2019WH1 O C K 2019-12-20.20210 1.000E-05 03:24:26.280 1.500E-01 0.500 F -0.278 -0.222 -12° 51' 54.10" 1.000E-01 0.500 F 0.204 0.057 o 691 0.47 Yes No
2019YE O C K 2019-12-20.21131 1.000E-05 04:13:32.360 1.500E-01 0.500 F -0.186 -0.285 +15° 11' 50.80" 1.000E-01 0.500 F 0.234 0.032 22.1 R 0.70 0.56 o 691 0.61 Yes Yes
2019YE O C K 2019-12-20.22088 1.000E-05 04:13:35.850 1.500E-01 0.500 F -0.186 -0.111 +15° 10' 45.90" 1.000E-01 0.500 F 0.234 0.138 22.2 R 0.70 0.66 o 691 0.38 Yes Yes
2019YE O C K 2019-12-20.23050 1.000E-05 04:13:39.330 1.500E-01 0.500 F -0.186 -0.185 +15° 09' 40.20" 1.000E-01 0.500 F 0.234 -0.238 21.9 R 0.70 0.36 o 691 0.61 Yes Yes
2019XG2 O C K 2019-12-20.30196 1.000E-05 07:44:51.880 1.500E-01 0.500 F -0.095 0.740 +25° 05' 34.40" 1.000E-01 0.500 F 0.205 0.043 o 691 1.57 Yes No
2019XG2 O C K 2019-12-20.31278 1.000E-05 07:44:49.610 1.500E-01 0.500 F -0.095 -0.740 +25° 05' 18.30" 1.000E-01 0.500 F 0.205 -0.798 o 691 2.30 Yes No
2019XG2 O C K 2019-12-20.32361 1.000E-05 07:44:47.470 1.500E-01 0.500 F -0.095 -0.373 +25° 05' 03.30" 1.000E-01 0.500 F 0.205 -0.477 o 691 1.28 Yes No
2019TZ1 O C K 2019-12-20.33616 1.000E-05 08:03:50.970 1.500E-01 0.500 F -0.084 -0.248 -02° 48' 49.80" 1.000E-01 0.500 F -0.012 0.339 20.0 R 0.70 -0.96 o 691 0.85 Yes Yes
2019TZ1 O C K 2019-12-20.34428 1.000E-05 08:03:51.080 1.500E-01 0.500 F -0.084 0.069 -02° 48' 32.50" 1.000E-01 0.500 F -0.012 -0.508 19.5 R 0.70 -1.46 o 691 1.03 Yes Yes
2019TZ1 O C K 2019-12-20.35240 1.000E-05 08:03:51.130 1.500E-01 0.500 F -0.084 -0.460 -02° 48' 13.70" 1.000E-01 0.500 F -0.012 0.138 20.5 R 0.70 -0.46 o 691 0.97 Yes Yes
2019MS3 O C K 2019-12-20.38395 1.000E-05 08:23:53.230 1.500E-01 0.500 F -0.021 0.386 -05° 46' 54.40" 1.000E-01 0.500 F 0.035 -0.146 20.2 R 0.70 0.90 o 691 0.84 Yes Yes
2019MS3 O C K 2019-12-20.38776 1.000E-05 08:23:52.300 1.500E-01 0.500 F -0.021 -0.326 -05° 46' 42.00" 1.000E-01 0.500 F 0.035 0.064 20.2 R 0.70 0.90 o 691 0.67 Yes Yes
2019MS3 O C K 2019-12-20.39158 1.000E-05 08:23:51.400 1.500E-01 0.500 F -0.021 -0.555 -05° 46' 29.60" 1.000E-01 0.500 F 0.035 0.242 20.1 R 0.70 0.80 o 691 1.22 Yes Yes
2019WR O C K 2019-12-20.39704 1.000E-05 08:45:19.480 1.500E-01 0.500 F -0.033 0.460 -13° 00' 50.00" 1.000E-01 0.500 F -0.028 0.051 o 691 0.96 Yes No
2019WR O C K 2019-12-20.40662 1.000E-05 08:45:22.080 1.500E-01 0.500 F -0.033 -0.092 -13° 01' 49.50" 1.000E-01 0.500 F -0.028 -0.251 o 691 0.56 Yes No
2019WR O C K 2019-12-20.41619 1.000E-05 08:45:24.750 1.500E-01 0.500 F -0.033 0.487 -13° 02' 48.50" 1.000E-01 0.500 F -0.028 -0.226 o 691 1.12 Yes No
2006WF129 O C K 2019-12-20.45015 1.000E-05 09:04:29.610 1.500E-01 0.500 F -0.024 0.035 -01° 08' 42.60" 1.000E-01 0.500 F 0.029 0.151 o 691 0.31 Yes No
2006WF129 O C K 2019-12-20.45964 1.000E-05 09:04:29.090 1.500E-01 0.500 F -0.024 0.714 -01° 08' 53.80" 1.000E-01 0.500 F 0.029 -0.101 21.0 R 0.70 0.05 o 691 1.45 Yes Yes
2006WF129 O C K 2019-12-20.46912 1.000E-05 09:04:28.480 1.500E-01 0.500 F -0.024 0.034 -01° 09' 04.60" 1.000E-01 0.500 F 0.029 0.033 21.1 R 0.70 0.15 o 691 0.10 Yes Yes
2015AJ44 O C K 2019-12-20.53759 1.000E-05 09:45:42.180 1.500E-01 0.500 F 0.180 0.216 +06° 32' 22.50" 1.000E-01 0.500 F 0.222 0.167 o 691 0.55 Yes No
2015AJ44 O C K 2019-12-20.54224 1.000E-05 09:45:41.340 1.500E-01 0.500 F 0.180 -0.499 +06° 32' 29.50" 1.000E-01 0.500 F 0.222 0.691 o 691 1.85 Yes No
2015AJ44 O C K 2019-12-20.54689 1.000E-05 09:45:40.570 1.500E-01 0.500 F 0.180 -0.176 +06° 32' 34.50" 1.000E-01 0.500 F 0.222 -0.784 o 691 1.66 Yes No
2019WG4 O C K 2019-12-21.12693 1.000E-05 01:23:21.400 1.500E-01 0.500 F -0.289 0.133 -15° 08' 39.60" 1.000E-01 0.500 F 0.266 -0.392 21.9 R 0.70 0.47 o 691 0.84 Yes Yes
2019WG4 O C K 2019-12-21.14145 1.000E-05 01:23:19.860 1.500E-01 0.500 F -0.289 -0.233 -15° 08' 35.30" 1.000E-01 0.500 F 0.266 -0.456 22.4 R 0.70 0.97 o 691 1.03 Yes Yes
2019WG4 O C K 2019-12-21.15596 1.000E-05 01:23:18.340 1.500E-01 0.500 F -0.289 -0.346 -15° 08' 30.70" 1.000E-01 0.500 F 0.266 -0.250 22.0 R 0.70 0.57 o 691 0.86 Yes Yes
2019YF1 O C K 2019-12-21.18137 1.000E-05 03:05:37.360 1.500E-01 0.500 F -0.216 0.590 +16° 18' 44.00" 1.000E-01 0.500 F 0.318 -0.075 20.5 R 0.70 -0.18 o 691 1.29 Yes Yes
2019YF1 O C K 2019-12-21.19157 1.000E-05 03:05:40.850 1.500E-01 0.500 F -0.216 0.095 +16° 19' 52.10" 1.000E-01 0.500 F 0.318 0.153 20.7 R 0.70 0.02 o 691 0.40 Yes Yes
2019YF1 O C K 2019-12-21.20176 1.000E-05 03:05:44.360 1.500E-01 0.500 F -0.216 -0.080 +16° 20' 59.50" 1.000E-01 0.500 F 0.318 -0.176 21.3 R 0.70 0.62 o 691 0.43 Yes Yes
2019YK1 O C K 2019-12-21.21319 1.000E-05 03:05:00.350 1.500E-01 0.500 F -0.188 -0.011 +30° 51' 55.50" 1.000E-01 0.500 F 0.263 -0.229 o 691 0.46 Yes No
2019YK1 O C K 2019-12-21.21736 1.000E-05 03:05:03.490 1.500E-01 0.500 F -0.188 -0.177 +30° 52' 09.60" 1.000E-01 0.500 F 0.263 -0.509 o 691 1.09 Yes No
2019YK1 O C K 2019-12-21.22152 1.000E-05 03:05:06.630 1.500E-01 0.500 F -0.188 -0.243 +30° 52' 24.10" 1.000E-01 0.500 F 0.263 -0.305 o 691 0.79 Yes No
2019WH1 O C K 2019-12-21.22844 1.000E-05 03:27:02.130 1.500E-01 0.500 F -0.446 0.352 -11° 43' 53.00" 1.000E-01 0.500 F 0.179 0.195 o 691 0.82 Yes No
2019WH1 O C K 2019-12-21.23484 1.000E-05 03:27:03.020 1.500E-01 0.500 F -0.446 0.047 -11° 43' 28.00" 1.000E-01 0.500 F 0.179 -0.002 o 691 0.10 Yes No
2019WH1 O C K 2019-12-21.24124 1.000E-05 03:27:03.920 1.500E-01 0.500 F -0.446 -0.115 -11° 43' 02.80" 1.000E-01 0.500 F 0.179 -0.002 o 691 0.23 Yes No
2019WT O C K 2019-12-21.24972 1.000E-05 04:10:56.380 1.500E-01 0.500 F -0.159 -0.087 +06° 32' 10.60" 1.000E-01 0.500 F 0.364 -0.109 o 691 0.28 Yes No
2019WT O C K 2019-12-21.26341 1.000E-05 04:10:56.960 1.500E-01 0.500 F -0.159 -0.146 +06° 31' 46.80" 1.000E-01 0.500 F 0.364 0.276 o 691 0.63 Yes No
2019WT O C K 2019-12-21.27713 1.000E-05 04:10:57.580 1.500E-01 0.500 F -0.159 0.324 +06° 31' 22.10" 1.000E-01 0.500 F 0.364 -0.178 o 691 0.75 Yes No
2019YM1 O C K 2019-12-21.29551 1.000E-05 04:44:55.500 1.500E-01 0.500 F -0.239 0.058 +20° 12' 18.70" 1.000E-01 0.500 F 0.177 0.284 22.3 R 0.70 0.58 o 691 0.62 Yes Yes
2019YM1 O C K 2019-12-21.30686 1.000E-05 04:44:53.450 1.500E-01 0.500 F -0.239 -0.365 +20° 12' 45.30" 1.000E-01 0.500 F 0.177 0.074 22.0 R 0.70 0.27 o 691 0.82 Yes Yes
2019YM1 O C K 2019-12-21.31821 1.000E-05 04:44:51.480 1.500E-01 0.500 F -0.239 0.285 +20° 13' 11.90" 1.000E-01 0.500 F 0.177 -0.082 o 691 0.66 Yes No
2019XZ2 O C K 2019-12-21.34291 1.000E-05 05:28:32.520 1.500E-01 0.500 F -0.255 0.037 -14° 14' 04.10" 1.000E-01 0.500 F 0.144 -0.107 21.6 R 0.70 0.50 o 691 0.23 Yes Yes
2019XZ2 O C K 2019-12-21.36623 1.000E-05 05:28:34.190 1.500E-01 0.500 F -0.255 0.142 -14° 15' 14.70" 1.000E-01 0.500 F 0.144 0.152 21.2 R 0.70 0.10 o 691 0.42 Yes Yes
2015BN311 O C K 2019-12-21.42839 1.000E-05 07:31:48.460 1.500E-01 0.500 F -0.004 -0.253 +21° 14' 32.70" 1.000E-01 0.500 F 0.260 -0.228 o 691 0.69 Yes No
2015BN311 O C K 2019-12-21.43936 1.000E-05 07:31:47.100 1.500E-01 0.500 F -0.004 -0.398 +21° 14' 47.50" 1.000E-01 0.500 F 0.260 -0.252 o 691 0.96 Yes No
2019WO2 O C K 2019-12-21.51844 1.000E-05 10:02:19.290 1.500E-01 0.500 F 0.238 -0.072 -29° 20' 42.50" 1.000E-01 0.500 F -0.059 0.631 o 691 1.30 Yes No
2019WO2 O C K 2019-12-21.52464 1.000E-05 10:02:20.380 1.500E-01 0.500 F 0.238 -0.570 -29° 20' 54.50" 1.000E-01 0.500 F -0.059 0.330 o 691 1.36 Yes No
2019WO2 O C K 2019-12-21.53085 1.000E-05 10:02:21.570 1.500E-01 0.500 F 0.238 0.169 -29° 21' 06.80" 1.000E-01 0.500 F -0.059 -0.368 o 691 0.83 Yes No
2019UT9 O C K 2019-12-22.06951 1.000E-05 22:40:24.180 1.500E-01 0.500 F -0.163 -0.388 -18° 47' 07.60" 1.000E-01 0.500 F -0.032 0.053 20.2 R 0.70 0.62 o 691 0.79 Yes Yes
2019UT9 O C K 2019-12-22.07392 1.000E-05 22:40:24.320 1.500E-01 0.500 F -0.163 -0.157 -18° 46' 50.20" 1.000E-01 0.500 F -0.032 -0.071 20.5 R 0.70 0.92 o 691 0.35 Yes Yes
2019UT9 O C K 2019-12-22.07833 1.000E-05 22:40:24.440 1.500E-01 0.500 F -0.163 -0.213 -18° 46' 32.40" 1.000E-01 0.500 F -0.032 0.200 20.2 R 0.70 0.62 o 691 0.60 Yes Yes
2019WC4 O C K 2019-12-22.08572 1.000E-05 22:47:29.720 1.500E-01 0.500 F -0.097 -0.305 +19° 29' 26.30" 1.000E-01 0.500 F 0.255 0.378 21.7 R 0.70 0.13 o 691 1.10 Yes Yes
2019WC4 O C K 2019-12-22.10882 1.000E-05 22:47:24.910 1.500E-01 0.500 F -0.097 -0.003 +19° 27' 24.60" 1.000E-01 0.500 F 0.255 -0.447 21.1 R 0.70 -0.47 o 691 1.05 Yes Yes
2019WC5 O C 2019-12-22.40761 1.000E-05 06:10:59.530 1.500E-01 0.500 F -0.158 0.311 -03° 57' 34.10" 1.000E-01 0.500 F 0.009 -0.013 19.5 R 0.70 0.04 o 691 0.63 Yes Yes
2019WC5 O C 2019-12-22.40935 1.000E-05 06:10:59.600 1.500E-01 0.500 F -0.158 0.003 -03° 57' 35.00" 1.000E-01 0.500 F 0.009 0.261 19.7 R 0.70 0.24 o 691 0.53 Yes Yes
2019WC5 O C 2019-12-22.41629 1.000E-05 06:11:00.000 1.500E-01 0.500 F -0.158 0.550 -03° 57' 40.50" 1.000E-01 0.500 F 0.009 -0.556 o 691 1.58 Yes No
2019SC9 O C K 2019-12-22.45073 1.000E-05 08:10:23.910 1.500E-01 0.500 F -0.058 -0.922 +27° 46' 13.40" 1.000E-01 0.500 F 0.220 0.405 20.4 R 0.70 0.47 o 691 2.03 Yes Yes
2019SC9 O C K 2019-12-22.45294 1.000E-05 08:10:23.920 1.500E-01 0.500 F -0.058 0.246 +27° 46' 14.40" 1.000E-01 0.500 F 0.220 0.106 20.6 R 0.70 0.67 o 691 0.54 Yes Yes
2019SC9 O C K 2019-12-22.45515 1.000E-05 08:10:23.760 1.500E-01 0.500 F -0.058 -0.843 +27° 46' 16.00" 1.000E-01 0.500 F 0.220 0.410 o 691 1.89 Yes No
2014YW34 O C K 2019-12-22.48557 1.000E-05 10:08:54.440 1.500E-01 0.500 F 0.073 0.060 +30° 28' 49.10" 1.000E-01 0.500 F 0.241 -0.132 21.1 R 0.70 0.95 o 691 0.29 Yes Yes
2014YW34 O C K 2019-12-22.48901 1.000E-05 10:08:53.400 1.500E-01 0.500 F 0.073 0.007 +30° 28' 48.70" 1.000E-01 0.500 F 0.241 0.036 20.6 R 0.70 0.45 o 691 0.07 Yes Yes
2014YW34 O C K 2019-12-22.49244 1.000E-05 10:08:52.380 1.500E-01 0.500 F 0.073 0.173 +30° 28' 48.20" 1.000E-01 0.500 F 0.241 0.111 20.7 R 0.70 0.55 o 691 0.41 Yes Yes
2019UO O C 2019-12-23.14651 1.000E-05 23:18:27.650 1.500E-01 0.500 F -0.103 0.012 +08° 39' 28.10" 1.000E-01 0.500 F 0.267 0.113 19.1 R 0.70 1.13 o 691 0.23 Yes Yes
2019UO O C 2019-12-23.15220 1.000E-05 23:18:27.300 1.500E-01 0.500 F -0.103 -0.140 +08° 39' 11.30" 1.000E-01 0.500 F 0.267 -0.366 19.3 R 0.70 1.33 o 691 0.79 Yes Yes
2019UO O C 2019-12-23.15789 1.000E-05 23:18:27.000 1.500E-01 0.500 F -0.103 0.387 +08° 38' 55.50" 1.000E-01 0.500 F 0.267 0.173 19.2 R 0.70 1.23 o 691 0.85 Yes Yes
2019XB O C K 2019-12-23.16043 1.000E-05 00:47:51.890 1.500E-01 0.500 F -0.104 -0.352 +10° 01' 04.20" 1.000E-01 0.500 F 0.283 0.017 20.8 R 0.70 0.64 o 691 0.72 Yes Yes
2019XB O C K 2019-12-23.16365 1.000E-05 00:47:51.200 1.500E-01 0.500 F -0.104 0.008 +10° 00' 44.00" 1.000E-01 0.500 F 0.283 -0.079 20.6 R 0.70 0.44 o 691 0.17 Yes Yes
2019XB O C K 2019-12-23.16688 1.000E-05 00:47:50.480 1.500E-01 0.500 F -0.104 -0.064 +10° 00' 24.00" 1.000E-01 0.500 F 0.283 0.087 20.3 R 0.70 0.14 o 691 0.22 Yes Yes
2019WC6 O C K 2019-12-23.17562 1.000E-05 02:57:13.850 1.500E-01 0.500 F -0.267 0.020 +25° 04' 49.10" 1.000E-01 0.500 F 0.292 0.052 20.5 R 0.70 0.17 o 691 0.11 Yes Yes

[1-200] [201-400] [401-600] [601-800] [801-1000] [1001-1200] [1201-1400] [1401-1600] [1601-1800] [1801-2000] [2001-2200] [2201-2400] [2401-2600] [2601-2800] [2801-3000] [3001-3200] [3201-3400] [3401-3600] [3601-3800] [3801-4000] [4001-4200] [4201-4400] [4401-4600] [4601-4800] [4801-5000] [5001-5200] [5201-5400] [5401-5600] [5601-5800] [5801-6000] [6001-6200] [6201-6400] [6401-6600] [6601-6800] [6801-7000] [7001-7200] [7201-7400] [7401-7600] [7601-7800] [7801-8000] [8001-8200] [8201-8400] [8401-8600] [8601-8800] [8801-9000] [9001-9200] [9201-9400] [9401-9600] [9601-9800] [9801-10000] [10001-10200] [10201-10400] [10401-10600] [10601-10800] [10801-11000] [11001-11200] [11201-11400] [11401-11600] [11601-11800] [11801-12000] [12001-12200] [12201-12400] [12401-12600] [12601-12800] [12801-13000] [13001-13200] [13201-13400] [13401-13600] [13601-13800] [13801-14000] [14001-14200] [14201-14400] [14401-14600] [14601-14800] [14801-15000] [15001-15200] [15201-15400] [15401-15600] [15601-15800] [15801-16000] [16001-16200] [16201-16400] [16401-16600] [16601-16800] [16801-17000] [17001-17200] [17201-17400] [17401-17600] [17601-17800] [17801-18000] [18001-18200] [18201-18400] [18401-18600] [18601-18800] [18801-19000] [19001-19200] [19201-19400] [19401-19600] [19601-19800] [19801-20000] [20001-20200] [20201-20400] [20401-20600] [20601-20800] [20801-21000] [21001-21200] [21201-21400] [21401-21600] [21601-21800] [21801-22000] [22001-22200] [22201-22400] [22401-22600] [22601-22800] [22801-23000] [23001-23200] [23201-23400] [23401-23600] [23601-23800] [23801-24000] [24001-24200] [24201-24400] [24401-24600] [24601-24800] [24801-25000] [25001-25200] [25201-25400] [25401-25600] [25601-25800] [25801-26000] [26001-26200] [26201-26400] [26401-26600] [26601-26800] [26801-27000] [27001-27200] [27201-27400] [27401-27600] [27601-27800] [27801-28000] [28001-28200] [28201-28400] [28401-28600] [28601-28800] [28801-29000] [29001-29200] [29201-29400] [29401-29600] [29601-29800] [29801-30000] [30001-30200] [30201-30400] [30401-30600] [30601-30800] [30801-31000] [31001-31200] [31201-31400] [31401-31600] [31601-31800] [31801-32000] [32001-32200] [32201-32400] [32401-32600] [32601-32800] [32801-33000] [33001-33200] [33201-33400] [33401-33600] [33601-33800] [33801-34000] [34001-34200] [34201-34400] [34401-34600] [34601-34800] [34801-35000] [35001-35200] [35201-35400] [35401-35600] [35601-35800] [35801-36000] [36001-36200] [36201-36400] [36401-36600] [36601-36800] [36801-37000] [37001-37200] [37201-37400] [37401-37600] [37601-37800] [37801-38000] [38001-38200] [38201-38400] [38401-38600] [38601-38800] [38801-39000] [39001-39200] [39201-39400] [39401-39600] [39601-39800] [39801-40000] [40001-40200] [40201-40400] [40401-40600] [40601-40800] [40801-41000] [41001-41200] [41201-41400] [41401-41600] [41601-41800] [41801-42000] [42001-42200] [42201-42400] [42401-42600] [42601-42800] [42801-43000] [43001-43200] [43201-43400] [43401-43600] [43601-43800] [43801-44000] [44001-44200] [44201-44400] [44401-44600] [44601-44800] [44801-45000] [45001-45200] [45201-45400] [45401-45600] [45601-45800] [45801-46000] [46001-46200] [46201-46400] [46401-46600] [46601-46800] [46801-47000] [47001-47200] [47201-47400] [47401-47600] [47601-47800] [47801-48000] [48001-48200] [48201-48400] [48401-48600] [48601-48800] [48801-49000] [49001-49200] [49201-49400] [49401-49600] [49601-49800] [49801-50000] [50001-50200] [50201-50388]